x

Portland 12 Nm Southeast Of Portland,me (44007) Wave Buoy

11:50 - Tue 2nd Sep 2014 All times are EDT. -4 hours from GMT.

  • Sig Wave height 2.0ft
  • Swell Direction
  • Peak Period 7s
  • Average Period 5s
  • Wind
    7mph, 9mph gusts
  • Sea Temp 63°f
  • Ar Temp 66°f
  • Sea Pressure 1005.9mb
  • Portland 12 Nm Southeast Of Portland,me
  • Portland 12 Nm Southeast Of Portland,me

More Historic Weather Station data

Upgrade to MSW Pro to gain access to the past 30 days of data for over 8000 Wavebouys and Weather Stations around the globe.

Join Pro

Comparision Forecast

View Surf forecast
   
Ter 09/02 11:50 2ft 7s 5s 7 9 mph 1005.9mb 63f 66f
10:50 2ft 6s 5s 2
mph
1006.9mb 63f 66f
9:50 2ft 6s 5s 9 11 mph 1006.9mb 62f 67f
8:50 2.5ft 6s 5s 11
mph
1007.2mb 63f 67f
7:50 2.5ft 6s 5s 11 13 mph 1007.4mb 64f 68f
6:50 2.5ft 7s 6s 9
mph
1007.7mb 65f 68f
5:50 2ft 6s 5s 4 7 mph 1008.1mb 65f 68f
4:50 2ft 6s 6s 9 11 mph 1008.8mb 65f 67f
3:50 1.6ft 7s 6s 9 11 mph 1008.5mb 65f 67f
2:50 1.6ft 6s 6s 4 7 mph 1009.3mb 65f 67f
1:50 2ft 8s 6s 4
mph
1010.4mb 64f 67f
12:50 1.6ft 9s 6s 7
mph
1010.9mb 64f 65f
11:50 2ft 6s 6s 4
mph
1011.9mb 63f 64f
10:50 2ft 7s 5s 7
mph
1012.5mb 63f 63f
9:50 2ft 7s 6s 7
mph
1013mb 62f 63f
8:50 2ft 7s 5s 4 7 mph 1012.5mb 63f 62f
7:50 2ft 7s 6s 2
mph
1012.6mb 63f 63f
6:50 2ft 8s 6s 9
mph
1011.9mb 63f 63f
5:50 2ft 7s 6s 2 4 mph 1012mb 63f 63f
4:50 2ft 8s 6s 2
mph
1011.7mb 63f 64f
3:50 1.6ft 8s 5s 4
mph
1011.9mb 63f 64f
2:50 1.6ft 8s 6s 2
mph
1012.3mb 63f 66f
1:50 1.6ft 8s 6s 4
mph
1012.6mb 64f 65f
12:50 1.6ft 9s 5s 4
mph
1013.1mb 64f 65f
Seg 09/01 11:50 2ft 9s 6s 4 7 mph 1013.2mb 64f 66f
10:50 2ft 6s 6s 7
mph
1013.1mb 64f 66f
9:50 2.5ft 7s 6s 2 4 mph 1013.6mb 63f 65f
8:50 2.5ft 6s 5s 2 4 mph 1013.5mb 63f 67f
7:50 2.5ft 6s 5s 4
mph
1012.9mb 63f 67f
6:50 2.5ft 6s 5s 7
mph
1012.5mb 64f 67f
5:50 2ft 6s 5s 7
mph
1012.4mb 64f 68f
4:50 2.5ft 6s 5s 9 11 mph 1012.4mb 64f 68f
3:50 2.5ft 6s 5s 7
mph
1012.9mb 64f 68f
2:50 2.5ft 8s 5s 7 9 mph 1013.4mb 64f 67f
1:50 2.5ft 7s 5s 7
mph
1013.7mb 63f 66f
12:50 2.5ft 8s 5s 7
mph
1013.9mb 64f 65f
11:50 2.5ft 8s 5s 2 4 mph 1014mb 62f 66f
10:50 2.5ft 6s 5s 4
mph
1014.4mb 62f 65f
9:50 2.5ft 6s 5s 4 7 mph 1014.5mb 62f 63f
8:50 2.5ft 5s 5s 2
mph
1014.6mb 61f 63f
7:50 2.5ft 6s 5s 4 7 mph 1014.4mb 61f 64f
6:50 2.5ft 6s 5s  -  2 mph 1014.1mb 60f 64f
5:50 2.5ft 6s 5s 2
mph
1013.7mb 60f 65f
4:50 2.5ft 5s 5s 4
mph
1012.9mb 60f 63f
3:50 2.5ft 5s 5s 4
mph
1012.8mb 60f 64f
2:50 2.5ft 5s 5s 13
mph
1012.5mb 60f 65f
1:50 2.5ft 4s 5s 11
mph
1012.6mb 60f 64f
12:50 2ft 5s 5s 9
mph
1013mb 60f 64f
Dom 08/31 11:50 2.5ft 5s 5s 11 13 mph 1013.4mb 60f 65f
10:50 2.5ft 5s 5s 11 16 mph 1013.6mb 60f 67f
9:50 2ft 5s 5s 4 7 mph 1014.4mb 59f 68f
8:50 2ft 5s 5s 9
mph
1013.9mb 59f 65f
7:50 2.5ft 5s 5s 7 9 mph 1013.8mb 60f 65f
6:50 2.5ft 5s 5s 2 4 mph 1013.7mb 61f 65f
5:50 2.5ft 5s 5s 9 11 mph 1013.6mb 61f 66f
4:50 2.5ft 5s 4s 9 11 mph 1013.3mb 61f 66f
3:50 2.5ft 5s 5s 16 18 mph 1013.2mb 61f 67f
2:50 2.5ft 5s 5s 13 16 mph 1013.5mb 60f 65f
1:50 3ft 5s 5s 16
mph
1014mb 60f 65f
12:50 3.5ft 6s 5s 11 13 mph 1014.6mb 59f 64f
11:50 3.5ft 5s 5s 16 18 mph 1015.3mb 58f 64f
10:50 3.5ft 6s 4s 13 16 mph 1016mb 58f 63f
9:50 3.5ft 6s 5s 16 18 mph 1016.3mb 58f 63f
8:50 3.5ft 5s 5s 9 11 mph 1017mb 59f 63f
7:50 4ft 6s 5s 16 18 mph 1016.8mb 59f 63f
6:50 3.5ft 6s 5s 18 20 mph 1016.7mb 60f 63f
5:50 3.5ft 6s 5s 18 20 mph 1016.8mb 60f 63f
4:50 4ft 6s 5s 13 16 mph 1017mb 60f 63f
3:50 4ft 6s 5s 20 22 mph 1017.2mb 60f 64f
2:50 4ft 6s 4s 18 22 mph 1017.5mb 60f 64f
1:50 4.5ft 6s 5s 18 20 mph 1018mb 60f 64f
12:50 4.5ft 6s 5s 22 25 mph 1018.4mb 60f 64f
Sáb 08/30 11:50 4.5ft 6s 5s 20 25 mph 1018.7mb 60f 64f
10:50 4.5ft 5s 5s 20 22 mph 1019.2mb 60f 64f
9:50 4ft 5s 5s 20 22 mph 1019.3mb 61f 64f
8:50 4ft 5s 5s 18 22 mph 1019.7mb 61f 64f
7:50 4ft 5s 5s 20 25 mph 1019.6mb 61f 64f
6:50 3.5ft 5s 4s 18 22 mph 1020mb 61f 64f
5:50 3.5ft 5s 4s 16 20 mph 1020.6mb 62f 64f
4:50 3.5ft 5s 4s 18 22 mph 1021.1mb 62f 64f
3:50 3.5ft 5s 4s 18 22 mph 1021.7mb 63f 64f
2:50 3.5ft 4s 4s 20 22 mph 1022.1mb 63f 63f
1:50 3ft 4s 4s 20 25 mph 1022.9mb 62f 63f
12:50 2.5ft 9s 4s 18 20 mph 1024mb 62f 63f
11:50 2.5ft 9s 4s 16 18 mph 1024.6mb 62f 63f
10:50 2.5ft 9s 5s 13 16 mph 1025mb 62f 63f
9:50 2.5ft 9s 5s 13 16 mph 1025.3mb 62f 62f
8:50 2.5ft 9s 5s 13 16 mph 1025.3mb 62f 62f
7:50 2.5ft 11s 5s 11 13 mph 1025.6mb 62f 62f
6:50 2.5ft 9s 5s 13
mph
1025.5mb 61f 62f
5:50 2ft 9s 5s 9
mph
1025.3mb 62f 62f